Terminal Aerodrome Forecast
Issued by NWS Boston, MA

Current Version | Previous Version | Text Only | Print | Product List | Glossary On
Versions: 1 2 3 4 5 6 7 8 9 10 11 12 13 14 15 16 17 18 19 20 21 22 23 24 25 26 27 28 29 30 31 32 33 34 35 36 37 38
000 FTUS41 KBOX 302014 AAA TAFBOS TAF AMD KBOS 302014Z 3020/0124 03008KT 6SM -RA BKN008 OVC015 FM010000 04009KT 3SM -DZ BR OVC008 FM011000 02012KT 3SM -RA BR OVC003 FM011300 03014KT 3SM -RA BR OVC008=

USA.gov is the U.S. government's official web portal to all federal, state and local government web resources and services.